Terminal Aerodrome Forecast
Issued by NWS

Home | Current Version | Previous Version | Text Only | Print | Product List | Glossary On
Versions: 1 2 3 4 5 6 7 8 9 10 11 12
000
FTUS45 KRIW 220500
TAFBPI
TAF
KBPI 220520Z 2206/2306 VRB06KT P6SM VCSH SCT070 BKN100
     FM221200 VRB05KT P6SM SCT100
     FM222000 20011G20KT P6SM VCTS SCT050CB BKN080
     FM230000 30011G20KT P6SM -SHRA BKN050=

USA.gov is the U.S. government's official web portal to all federal, state and local government web resources and services.